createdAt,value
2018-06-11T00:02:18.505Z,12.50
2018-06-11T00:04:47.496Z,12.37
2018-06-11T00:07:16.532Z,13.50
2018-06-11T00:09:45.521Z,12.90
2018-06-11T00:12:14.504Z,12.50
2018-06-11T00:14:43.535Z,13.67
2018-06-11T00:17:12.624Z,13.00
2018-06-11T00:19:41.597Z,12.80
2018-06-11T00:22:10.591Z,12.77
2018-06-11T00:24:39.581Z,12.97
2018-06-11T00:27:08.599Z,13.37
2018-06-11T00:29:37.326Z,12.67
2018-06-11T00:32:06.250Z,12.97
2018-06-11T00:34:35.226Z,13.20
2018-06-11T00:37:04.232Z,13.40
2018-06-11T00:39:33.200Z,13.33
2018-06-11T00:42:02.200Z,13.53
2018-06-11T00:44:31.186Z,13.50
2018-06-11T00:47:00.196Z,13.70
2018-06-11T00:49:29.238Z,13.13
2018-06-11T00:51:58.208Z,13.23
2018-06-11T00:54:27.196Z,12.90
2018-06-11T00:56:56.208Z,13.63
2018-06-11T00:59:25.213Z,13.43
2018-06-11T01:01:54.172Z,14.00
2018-06-11T01:04:23.188Z,12.87
2018-06-11T01:06:52.192Z,14.23
2018-06-11T01:09:21.379Z,13.57
2018-06-11T01:11:50.396Z,13.63
2018-06-11T01:14:19.424Z,13.07
2018-06-11T01:16:48.428Z,13.90
2018-06-11T01:19:17.432Z,14.57
2018-06-11T01:21:46.440Z,13.90
2018-06-11T01:24:15.407Z,14.27
2018-06-11T01:26:44.480Z,13.87
2018-06-11T01:29:13.572Z,13.93
2018-06-11T01:31:42.672Z,14.03
2018-06-11T01:34:11.654Z,13.77
2018-06-11T01:36:40.726Z,14.57
2018-06-11T01:39:09.766Z,14.40
2018-06-11T01:41:38.764Z,14.30
2018-06-11T01:44:07.729Z,14.37
2018-06-11T01:46:36.712Z,13.90
2018-06-11T01:49:05.755Z,15.07
2018-06-11T01:51:34.722Z,13.87
2018-06-11T01:54:03.704Z,14.90
2018-06-11T01:56:32.670Z,15.03
2018-06-11T01:59:01.670Z,15.27
2018-06-11T02:01:30.657Z,14.67
2018-06-11T02:03:59.953Z,14.63
2018-06-11T02:06:28.946Z,15.00
2018-06-11T02:08:57.956Z,15.50
2018-06-11T02:11:26.937Z,14.37
2018-06-11T02:13:55.954Z,15.40
2018-06-11T02:16:25.158Z,15.40
2018-06-11T02:18:54.256Z,14.60
2018-06-11T02:21:23.278Z,14.67
2018-06-11T02:23:52.258Z,15.03
2018-06-11T02:26:21.269Z,15.60
2018-06-11T02:28:50.297Z,14.00
2018-06-11T02:31:19.190Z,14.20
2018-06-11T02:33:48.090Z,15.13
2018-06-11T02:36:17.176Z,14.50
2018-06-11T02:38:46.226Z,14.83
2018-06-11T02:41:15.229Z,15.13
2018-06-11T02:43:44.199Z,14.67
2018-06-11T02:46:13.250Z,16.20
2018-06-11T02:48:42.259Z,15.20
2018-06-11T02:51:11.305Z,16.13
2018-06-11T02:53:40.285Z,15.97
2018-06-11T02:56:09.314Z,15.50
2018-06-11T02:58:38.350Z,15.60
2018-06-11T03:01:07.341Z,15.50
2018-06-11T03:03:36.341Z,14.97
2018-06-11T03:06:05.680Z,15.83
2018-06-11T03:08:34.821Z,15.77
2018-06-11T03:11:03.793Z,15.77
2018-06-11T03:13:32.775Z,15.57
2018-06-11T03:16:01.942Z,15.60
2018-06-11T03:18:30.969Z,15.30
2018-06-11T03:21:00.034Z,16.57
2018-06-11T03:23:29.029Z,16.00
2018-06-11T03:25:58.029Z,16.47
2018-06-11T03:28:27.029Z,17.23
2018-06-11T03:30:56.079Z,16.77
2018-06-11T03:33:25.105Z,16.83
2018-06-11T03:35:54.137Z,18.20
2018-06-11T03:38:22.927Z,17.80
2018-06-11T03:40:51.873Z,17.10
2018-06-11T03:43:20.858Z,17.77
2018-06-11T03:45:49.837Z,18.00
2018-06-11T03:48:18.914Z,17.93
2018-06-11T03:50:47.911Z,17.93
2018-06-11T03:53:16.877Z,18.40
2018-06-11T03:55:45.877Z,17.90
2018-06-11T03:58:14.872Z,18.87
2018-06-11T04:00:43.895Z,18.23
2018-06-11T04:03:12.874Z,18.53
2018-06-11T04:05:41.892Z,18.70
2018-06-11T04:08:10.861Z,18.30
2018-06-11T04:10:39.899Z,18.07
2018-06-11T04:13:08.907Z,19.53
2018-06-11T04:15:37.940Z,19.47
2018-06-11T04:18:06.950Z,18.63
2018-06-11T04:20:35.945Z,19.17
2018-06-11T04:23:04.960Z,18.53
2018-06-11T04:25:33.973Z,19.87
2018-06-11T04:28:03.108Z,19.17
2018-06-11T04:30:32.182Z,19.30
2018-06-11T04:33:00.884Z,19.00
2018-06-11T04:35:29.825Z,19.93
2018-06-11T04:37:58.892Z,19.10
2018-06-11T04:40:27.915Z,19.60
2018-06-11T04:42:56.902Z,18.53
2018-06-11T04:45:25.937Z,19.17
2018-06-11T04:47:54.762Z,19.13
2018-06-11T04:50:23.678Z,18.10
2018-06-11T04:52:53.173Z,18.33
2018-06-11T04:55:22.154Z,19.07
2018-06-11T04:57:51.246Z,18.33
2018-06-11T05:00:20.315Z,19.37
2018-06-11T05:02:49.359Z,18.33
2018-06-11T05:05:18.367Z,18.33
2018-06-11T05:07:47.440Z,18.87
2018-06-11T05:10:16.470Z,18.03
2018-06-11T05:12:45.506Z,18.60
2018-06-11T05:15:14.608Z,17.30
2018-06-11T05:17:43.630Z,18.23
2018-06-11T05:20:12.823Z,17.97
2018-06-11T05:22:41.833Z,17.53
2018-06-11T05:25:10.819Z,17.30
2018-06-11T05:27:39.940Z,17.67
2018-06-11T05:30:08.953Z,17.60
2018-06-11T05:32:37.930Z,17.37
2018-06-11T05:35:06.643Z,17.63
2018-06-11T05:37:35.581Z,16.90
2018-06-11T05:40:04.678Z,16.37
2018-06-11T05:42:33.774Z,17.90
2018-06-11T05:45:02.770Z,17.90
2018-06-11T05:47:31.774Z,18.23
2018-06-11T05:50:02.362Z,18.80
2018-06-11T05:52:31.440Z,17.83
2018-06-11T05:55:00.594Z,17.97
2018-06-11T05:57:29.565Z,18.97
2018-06-11T05:59:58.559Z,18.27
2018-06-11T06:02:27.667Z,18.63
2018-06-11T06:04:56.763Z,20.00
2018-06-11T06:07:26.161Z,19.73
2018-06-11T06:09:55.168Z,18.03
2018-06-11T06:12:24.206Z,19.00
2018-06-11T06:14:53.245Z,18.90
2018-06-11T06:17:24.034Z,19.33
2018-06-11T06:19:53.307Z,19.30
2018-06-11T06:22:22.257Z,18.80
2018-06-11T06:24:51.227Z,18.67
2018-06-11T06:27:20.221Z,18.53
2018-06-11T06:29:49.223Z,18.40
2018-06-11T06:32:18.241Z,18.63
2018-06-11T06:34:47.640Z,17.20
2018-06-11T06:37:16.589Z,18.43
2018-06-11T06:39:45.699Z,17.33
2018-06-11T06:42:14.707Z,18.07
2018-06-11T06:44:43.717Z,18.00
2018-06-11T06:47:12.731Z,17.97
2018-06-11T06:49:41.921Z,19.53
2018-06-11T06:52:11.008Z,18.87
2018-06-11T06:54:39.985Z,19.40
2018-06-11T06:57:08.941Z,19.03
2018-06-11T06:59:37.953Z,18.97
2018-06-11T07:02:07.251Z,19.57
2018-06-11T07:04:36.229Z,19.13
2018-06-11T07:07:05.320Z,17.63
2018-06-11T07:09:34.327Z,18.80
2018-06-11T07:12:03.399Z,18.63
2018-06-11T07:14:32.387Z,19.13
2018-06-11T07:17:01.077Z,18.07
2018-06-11T07:19:29.757Z,18.83
2018-06-11T07:21:58.705Z,18.27
2018-06-11T07:24:27.675Z,18.20
2018-06-11T07:26:56.647Z,18.70
2018-06-11T07:29:25.638Z,18.40
2018-06-11T07:31:54.681Z,17.00
2018-06-11T07:34:23.689Z,17.93
2018-06-11T07:36:52.703Z,17.37
2018-06-11T07:39:21.698Z,17.07
2018-06-11T07:41:50.740Z,18.23
2018-06-11T07:44:19.708Z,16.57
2018-06-11T07:46:48.729Z,16.40
2018-06-11T07:49:17.753Z,17.20
2018-06-11T07:51:46.831Z,16.23
2018-06-11T07:54:15.759Z,16.80
2018-06-11T07:56:44.730Z,16.03
2018-06-11T07:59:13.744Z,14.97
2018-06-11T08:01:42.882Z,14.67
2018-06-11T08:04:11.841Z,14.90
2018-06-11T08:06:40.811Z,15.23
2018-06-11T08:09:09.845Z,14.67
2018-06-11T08:11:38.856Z,15.10
2018-06-11T08:14:07.919Z,14.73
2018-06-11T08:16:36.921Z,13.53
2018-06-11T08:19:05.906Z,15.03
2018-06-11T08:21:34.910Z,15.03
2018-06-11T08:24:03.878Z,13.90
2018-06-11T08:26:32.844Z,14.00
2018-06-11T08:29:01.868Z,12.97
2018-06-11T08:31:30.875Z,13.23
2018-06-11T08:34:00.112Z,13.70
2018-06-11T08:36:29.138Z,13.10
2018-06-11T08:38:58.244Z,14.10
2018-06-11T08:41:27.386Z,13.90
2018-06-11T08:43:56.360Z,15.67
2018-06-11T08:46:25.335Z,15.23
2018-06-11T08:48:54.036Z,14.90
2018-06-11T08:51:22.946Z,14.53
2018-06-11T08:53:51.966Z,14.90
2018-06-11T08:56:20.956Z,13.73
2018-06-11T08:58:49.962Z,14.30
2018-06-11T09:01:18.984Z,14.93
2018-06-11T09:03:48.038Z,13.50
2018-06-11T09:06:17.115Z,14.00
2018-06-11T09:08:46.196Z,13.97
2018-06-11T09:11:15.179Z,13.03
2018-06-11T09:13:44.242Z,12.57
2018-06-11T09:16:13.250Z,13.97
2018-06-11T09:18:42.240Z,13.10
2018-06-11T09:21:11.226Z,13.83
2018-06-11T09:23:40.274Z,12.23
2018-06-11T09:26:09.280Z,12.77
2018-06-11T09:28:38.255Z,13.70
2018-06-11T09:31:07.291Z,13.23
2018-06-11T09:33:36.303Z,13.23
2018-06-11T09:36:05.345Z,13.53
2018-06-11T09:38:34.302Z,12.23
2018-06-11T09:41:03.420Z,12.57
2018-06-11T09:43:32.468Z,12.50
2018-06-11T09:46:01.438Z,11.63
2018-06-11T09:48:30.442Z,13.63
2018-06-11T09:50:59.445Z,12.30
2018-06-11T09:53:28.564Z,11.97
2018-06-11T09:55:57.598Z,11.43
2018-06-11T09:58:27.049Z,11.50
2018-06-11T10:00:56.748Z,11.60
2018-06-11T10:03:27.056Z,10.67
2018-06-11T10:05:56.042Z,11.00
2018-06-11T10:08:25.076Z,11.50
2018-06-11T10:10:54.086Z,10.50
2018-06-11T10:13:23.126Z,11.10
2018-06-11T10:15:52.136Z,10.80
2018-06-11T10:18:21.115Z,10.73
2018-06-11T10:20:50.252Z,11.63
2018-06-11T10:23:19.385Z,12.27
2018-06-11T10:25:48.481Z,11.77
2018-06-11T10:28:17.446Z,12.23
2018-06-11T10:30:46.263Z,11.67
2018-06-11T10:33:14.948Z,12.27
2018-06-11T10:35:43.885Z,11.13
2018-06-11T10:38:12.935Z,10.57
2018-06-11T10:40:42.703Z,11.33
2018-06-11T10:43:11.757Z,10.30
2018-06-11T10:45:40.794Z,11.00
2018-06-11T10:48:09.905Z,10.43
2018-06-11T10:50:39.026Z,10.10
2018-06-11T10:53:08.127Z,9.30
2018-06-11T10:55:37.132Z,9.30
2018-06-11T10:58:06.146Z,9.27
2018-06-11T11:00:35.111Z,8.67
2018-06-11T11:03:04.174Z,9.53
2018-06-11T11:05:33.251Z,8.90
2018-06-11T11:08:02.291Z,9.40
2018-06-11T11:10:31.383Z,7.93
2018-06-11T11:13:00.479Z,9.07
2018-06-11T11:15:29.475Z,8.73
2018-06-11T11:17:58.509Z,8.77
2018-06-11T11:20:27.520Z,9.63
2018-06-11T11:22:57.158Z,9.13
2018-06-11T11:25:26.269Z,10.20
2018-06-11T11:27:55.257Z,9.27
2018-06-11T11:30:24.271Z,9.23
2018-06-11T11:32:53.275Z,9.33
2018-06-11T11:35:22.347Z,8.67
2018-06-11T11:37:51.357Z,8.20
2018-06-11T11:40:20.361Z,7.67
2018-06-11T11:42:49.385Z,7.77
2018-06-11T11:45:18.370Z,7.27
2018-06-11T11:47:47.363Z,7.40
2018-06-11T11:50:16.322Z,6.90
2018-06-11T11:52:45.317Z,7.37
2018-06-11T11:55:15.300Z,7.93
2018-06-11T11:57:44.253Z,8.00
2018-06-11T12:00:13.354Z,7.33
2018-06-11T12:02:42.343Z,6.93
2018-06-11T12:05:11.371Z,7.07
2018-06-11T12:07:40.429Z,7.63
2018-06-11T12:10:09.771Z,7.43
2018-06-11T12:12:38.789Z,6.57
2018-06-11T12:15:07.835Z,6.60
2018-06-11T12:17:36.929Z,6.70
2018-06-11T12:20:05.902Z,6.37
2018-06-11T12:22:34.936Z,6.70
2018-06-11T12:25:03.965Z,6.83
2018-06-11T12:27:32.976Z,6.20
2018-06-11T12:30:01.935Z,6.63
2018-06-11T12:32:31.029Z,6.57
2018-06-11T12:35:00.036Z,5.70
2018-06-11T12:37:29.026Z,5.37
2018-06-11T12:39:58.050Z,6.07
2018-06-11T12:42:27.061Z,5.23
2018-06-11T12:44:56.089Z,5.60
2018-06-11T12:47:25.054Z,5.10
2018-06-11T12:49:54.114Z,5.03
2018-06-11T12:52:23.099Z,4.73
2018-06-11T12:54:52.171Z,5.03
2018-06-11T12:57:21.152Z,5.27
2018-06-11T12:59:50.112Z,6.03
2018-06-11T13:02:19.159Z,5.87
2018-06-11T13:04:48.247Z,5.73
2018-06-11T13:07:17.342Z,5.60
2018-06-11T13:09:46.402Z,5.17
2018-06-11T13:12:15.382Z,4.90
2018-06-11T13:14:44.404Z,4.80
2018-06-11T13:17:13.364Z,4.37
2018-06-11T13:19:42.337Z,5.00
2018-06-11T13:22:11.449Z,5.23
2018-06-11T13:24:40.432Z,4.53
2018-06-11T13:27:09.431Z,5.57
2018-06-11T13:29:38.407Z,5.63
2018-06-11T13:32:07.387Z,4.93
2018-06-11T13:34:36.506Z,4.77
2018-06-11T13:37:05.543Z,4.40
2018-06-11T13:39:34.569Z,4.30
2018-06-11T13:42:03.579Z,4.23
2018-06-11T13:44:32.651Z,4.33
2018-06-11T13:47:01.666Z,4.10
2018-06-11T13:49:30.796Z,3.93
2018-06-11T13:51:59.741Z,4.00
2018-06-11T13:54:28.884Z,4.20
2018-06-11T13:56:57.920Z,3.90
2018-06-11T13:59:26.856Z,4.43
2018-06-11T14:01:55.876Z,3.90
2018-06-11T14:04:24.899Z,3.43
2018-06-11T14:06:53.868Z,3.10
2018-06-11T14:09:22.890Z,3.63
2018-06-11T14:11:51.887Z,3.90
2018-06-11T14:14:20.947Z,3.40
2018-06-11T14:16:49.976Z,3.60
2018-06-11T14:19:19.099Z,3.90
2018-06-11T14:21:48.150Z,3.30
2018-06-11T14:24:17.142Z,3.90
2018-06-11T14:26:46.345Z,4.10
2018-06-11T14:29:15.320Z,3.57
2018-06-11T14:31:44.489Z,3.37
2018-06-11T14:34:13.498Z,3.70
2018-06-11T14:36:42.513Z,3.33
2018-06-11T14:39:11.497Z,3.50
2018-06-11T14:41:40.479Z,3.27
2018-06-11T14:44:09.478Z,3.70
2018-06-11T14:46:38.478Z,3.60
2018-06-11T14:49:07.802Z,3.73
2018-06-11T14:51:36.794Z,3.40
2018-06-11T14:54:05.787Z,3.50
2018-06-11T14:56:34.816Z,3.50
2018-06-11T14:59:03.881Z,3.60
2018-06-11T15:01:32.868Z,3.50
2018-06-11T15:04:01.849Z,3.90
2018-06-11T15:06:31.066Z,3.87
2018-06-11T15:09:00.165Z,3.80
2018-06-11T15:11:29.190Z,3.60
2018-06-11T15:13:58.146Z,4.10
2018-06-11T15:16:27.152Z,3.83
2018-06-11T15:18:56.236Z,3.90
2018-06-11T15:21:25.196Z,4.30
2018-06-11T15:23:54.326Z,4.00
2018-06-11T15:26:23.392Z,4.40
2018-06-11T15:28:52.450Z,4.13
2018-06-11T15:31:21.513Z,4.10
2018-06-11T15:33:50.533Z,4.00
2018-06-11T15:36:19.535Z,4.27
2018-06-11T15:38:48.517Z,4.27
2018-06-11T15:41:17.589Z,4.20
2018-06-11T15:43:46.566Z,4.13
2018-06-11T15:46:15.563Z,3.90
2018-06-11T15:48:44.528Z,4.40
2018-06-11T15:51:13.510Z,4.40
2018-06-11T15:53:42.538Z,4.60
2018-06-11T15:56:11.544Z,4.40
2018-06-11T15:58:40.501Z,4.53
2018-06-11T16:01:09.495Z,5.30
2018-06-11T16:03:38.205Z,4.30
2018-06-11T16:06:07.147Z,5.13
2018-06-11T16:08:36.237Z,4.90
2018-06-11T16:11:05.346Z,4.70
2018-06-11T16:13:34.302Z,4.90
2018-06-11T16:16:03.347Z,5.00
2018-06-11T16:18:32.360Z,5.07
2018-06-11T16:21:01.351Z,5.33
2018-06-11T16:23:30.386Z,4.80
2018-06-11T16:25:59.495Z,5.10
2018-06-11T16:28:28.505Z,5.13
2018-06-11T16:30:57.479Z,5.00
2018-06-11T16:33:26.529Z,5.20
2018-06-11T16:35:55.554Z,5.63
2018-06-11T16:38:24.541Z,5.77
2018-06-11T16:40:53.621Z,5.60
2018-06-11T16:43:22.627Z,6.10
2018-06-11T16:45:51.633Z,5.60
2018-06-11T16:48:20.686Z,5.37
2018-06-11T16:50:49.667Z,5.33
2018-06-11T16:53:18.617Z,5.80
2018-06-11T16:55:47.615Z,6.23
2018-06-11T16:58:16.700Z,5.97
2018-06-11T17:00:45.688Z,5.80
2018-06-11T17:03:14.633Z,5.60
2018-06-11T17:05:43.614Z,5.67
2018-06-11T17:08:12.655Z,6.30
2018-06-11T17:10:41.649Z,5.90
2018-06-11T17:13:10.673Z,5.37
2018-06-11T17:15:39.657Z,5.63
2018-06-11T17:18:08.716Z,5.67
2018-06-11T17:20:37.692Z,5.50
2018-06-11T17:23:06.679Z,5.70
2018-06-11T17:25:35.723Z,4.87
2018-06-11T17:28:04.767Z,5.40
2018-06-11T17:30:33.801Z,5.90
2018-06-11T17:33:02.779Z,5.40
2018-06-11T17:35:31.875Z,4.77
2018-06-11T17:38:00.875Z,5.77
2018-06-11T17:40:29.840Z,5.77
2018-06-11T17:42:58.909Z,5.30
2018-06-11T17:45:27.858Z,5.77
2018-06-11T17:47:56.869Z,5.27
2018-06-11T17:50:25.932Z,5.27
2018-06-11T17:52:55.021Z,5.80
2018-06-11T17:55:24.111Z,5.70
2018-06-11T17:57:53.042Z,5.40
2018-06-11T18:00:22.135Z,5.50
2018-06-11T18:02:51.106Z,5.77
2018-06-11T18:05:20.071Z,5.97
2018-06-11T18:07:49.082Z,5.90
2018-06-11T18:10:18.062Z,5.47
2018-06-11T18:12:47.030Z,6.50
2018-06-11T18:15:16.192Z,5.80
2018-06-11T18:17:45.168Z,6.37
2018-06-11T18:20:14.198Z,6.03
2018-06-11T18:22:43.218Z,5.60
2018-06-11T18:25:12.270Z,5.93
2018-06-11T18:27:41.319Z,5.90
2018-06-11T18:30:10.319Z,6.47
2018-06-11T18:32:39.315Z,6.60
2018-06-11T18:35:08.340Z,6.70
2018-06-11T18:37:37.425Z,5.90
2018-06-11T18:40:06.473Z,6.50
2018-06-11T18:42:35.519Z,6.47
2018-06-11T18:45:04.888Z,6.27
2018-06-11T18:47:33.949Z,6.47
2018-06-11T18:50:02.972Z,6.43
2018-06-11T18:52:31.945Z,6.57
2018-06-11T18:55:00.950Z,6.57
2018-06-11T18:57:29.997Z,6.77
2018-06-11T18:59:58.989Z,5.97
2018-06-11T19:02:27.970Z,6.03
2018-06-11T19:04:56.970Z,6.10
2018-06-11T19:07:25.974Z,6.80
2018-06-11T19:09:55.069Z,7.33
2018-06-11T19:12:24.166Z,7.43
2018-06-11T19:14:53.168Z,7.23
2018-06-11T19:17:22.469Z,7.10
2018-06-11T19:19:51.524Z,6.73
2018-06-11T19:22:20.535Z,6.87
2018-06-11T19:24:49.558Z,6.57
2018-06-11T19:27:19.558Z,6.30
2018-06-11T19:29:48.629Z,6.17
2018-06-11T19:32:17.609Z,6.27
2018-06-11T19:34:46.580Z,6.60
2018-06-11T19:37:15.530Z,6.90
2018-06-11T19:39:44.559Z,6.90
2018-06-11T19:42:19.951Z,6.80
2018-06-11T19:44:48.957Z,7.57
2018-06-11T19:47:18.162Z,7.67
2018-06-11T19:49:47.181Z,8.60
2018-06-11T19:52:16.165Z,8.03
2018-06-11T19:54:45.181Z,7.77
2018-06-11T19:57:14.231Z,8.53
2018-06-11T19:59:43.197Z,7.77
2018-06-11T20:02:12.149Z,8.13
2018-06-11T20:04:41.086Z,7.87
2018-06-11T20:07:10.075Z,7.90
2018-06-11T20:09:39.071Z,7.73
2018-06-11T20:12:08.017Z,8.27
2018-06-11T20:14:37.104Z,9.07
2018-06-11T20:17:06.069Z,8.30
2018-06-11T20:19:35.133Z,8.70
2018-06-11T20:22:04.073Z,8.10
2018-06-11T20:24:33.033Z,8.93
2018-06-11T20:27:02.054Z,8.37
2018-06-11T20:29:31.046Z,8.23
2018-06-11T20:32:00.025Z,8.63
2018-06-11T20:34:29.071Z,7.67
2018-06-11T20:36:58.037Z,8.23
2018-06-11T20:39:27.040Z,8.50
2018-06-11T20:41:56.036Z,7.57
2018-06-11T20:44:25.019Z,7.90
2018-06-11T20:46:54.021Z,8.83
2018-06-11T20:49:23.027Z,8.40
2018-06-11T20:51:52.002Z,7.67
2018-06-11T20:54:20.969Z,7.70
2018-06-11T20:56:49.953Z,7.40
2018-06-11T20:59:18.945Z,7.63
2018-06-11T21:01:47.927Z,7.73
2018-06-11T21:04:16.921Z,7.20
2018-06-11T21:06:46.041Z,7.10
2018-06-11T21:09:15.086Z,7.70
2018-06-11T21:11:44.074Z,7.10
2018-06-11T21:14:13.041Z,7.40
2018-06-11T21:16:42.099Z,7.67
2018-06-11T21:19:11.089Z,8.20
2018-06-11T21:21:40.103Z,6.80
2018-06-11T21:24:09.091Z,7.53
2018-06-11T21:26:38.127Z,7.10
2018-06-11T21:29:07.124Z,6.97
2018-06-11T21:31:36.103Z,6.97
2018-06-11T21:34:05.072Z,6.97
2018-06-11T21:36:34.053Z,6.80
2018-06-11T21:39:03.173Z,6.90
2018-06-11T21:41:32.133Z,6.70
2018-06-11T21:44:01.085Z,7.27
2018-06-11T21:46:30.357Z,7.10
2018-06-11T21:48:59.600Z,7.43
2018-06-11T21:51:28.569Z,7.53
2018-06-11T21:53:57.572Z,7.70
2018-06-11T21:56:26.561Z,7.37
2018-06-11T21:58:55.561Z,7.63
2018-06-11T22:01:24.600Z,8.33
2018-06-11T22:03:53.733Z,7.37
2018-06-11T22:06:22.616Z,7.57
2018-06-11T22:08:51.590Z,8.13
2018-06-11T22:11:20.561Z,8.00
2018-06-11T22:13:49.532Z,7.97
2018-06-11T22:16:18.523Z,8.47
2018-06-11T22:18:47.507Z,7.93
2018-06-11T22:21:16.508Z,7.40
2018-06-11T22:23:45.564Z,7.73
2018-06-11T22:26:14.568Z,7.90
2018-06-11T22:28:43.520Z,7.73
2018-06-11T22:31:12.510Z,7.47
2018-06-11T22:33:41.470Z,7.60
2018-06-11T22:36:10.458Z,8.00
2018-06-11T22:38:39.438Z,8.37
2018-06-11T22:41:08.471Z,8.10
2018-06-11T22:43:37.429Z,8.33
2018-06-11T22:46:06.395Z,8.27
2018-06-11T22:48:35.478Z,8.50
2018-06-11T22:51:04.485Z,9.17
2018-06-11T22:53:33.446Z,8.50
2018-06-11T22:56:02.396Z,8.53
2018-06-11T22:58:31.417Z,8.87
2018-06-11T23:01:00.424Z,9.70
2018-06-11T23:03:29.400Z,9.33
2018-06-11T23:05:58.462Z,9.60
2018-06-11T23:08:27.469Z,9.07
2018-06-11T23:10:56.460Z,9.83
2018-06-11T23:13:25.444Z,10.10
2018-06-11T23:15:54.449Z,9.80
2018-06-11T23:18:23.409Z,10.50
2018-06-11T23:20:52.417Z,9.90
2018-06-11T23:23:21.417Z,10.20
2018-06-11T23:25:50.409Z,10.00
2018-06-11T23:28:19.398Z,10.63
2018-06-11T23:30:48.393Z,10.73
2018-06-11T23:33:17.361Z,10.77
2018-06-11T23:35:46.333Z,10.80
2018-06-11T23:38:15.341Z,11.03
2018-06-11T23:40:44.353Z,11.63
2018-06-11T23:43:13.313Z,11.43
2018-06-11T23:45:42.325Z,11.37
2018-06-11T23:48:11.313Z,11.57
2018-06-11T23:50:40.409Z,11.83
2018-06-11T23:53:09.377Z,11.17
2018-06-11T23:55:38.356Z,11.97
2018-06-11T23:58:07.335Z,12.13
